Time;durP1;ratioP1;P1;durP2;ratioP2;P2;SDS_P1;SDS_P2;PMS_P1;PMS_P2;Temp;Humidity;BMP_temperature;BMP_pressure;BME280_temperature;BME280_humidity;BME280_pressure;Samples;Min_cycle;Max_cycle;Signal;HPM_P1;HPM_P2
2024/04/06 00:02:06;;;;;;;16.17;6.22;;;409.80;2355.20;;;;;;4984269;28;20463;-73
2024/04/06 00:04:34;;;;;;;11.82;6.20;;;409.80;2355.20;;;;;;4979602;28;20480;-74
2024/04/06 00:07:00;;;;;;;10.85;6.60;;;409.90;2355.20;;;;;;4978101;28;20448;-73
2024/04/06 00:09:26;;;;;;;14.45;6.90;;;409.90;2355.20;;;;;;4979709;28;20046;-78
2024/04/06 00:11:52;;;;;;;13.52;6.05;;;410.00;2355.20;;;;;;4987770;28;20105;-78
2024/04/06 00:14:18;;;;;;;14.48;6.50;;;410.10;2355.20;;;;;;4979848;28;20543;-74
2024/04/06 00:16:44;;;;;;;17.17;6.35;;;410.10;2355.20;;;;;;4981728;28;20089;-74
2024/04/06 00:19:10;;;;;;;18.15;6.18;;;410.10;2355.20;;;;;;4980769;28;20130;-74
2024/04/06 00:21:36;;;;;;;15.27;6.68;;;410.00;2355.20;;;;;;4978808;28;20057;-76
2024/04/06 00:24:02;;;;;;;10.38;6.28;;;410.00;2355.20;;;;;;4978601;28;20061;-75
2024/04/06 00:26:28;;;;;;;14.43;6.38;;;409.90;2355.20;;;;;;4988417;28;20156;-75
2024/04/06 00:28:54;;;;;;;13.65;6.53;;;410.00;2355.20;;;;;;4985564;28;20061;-79
2024/04/06 00:31:20;;;;;;;21.17;7.30;;;409.80;2355.20;;;;;;4978893;28;20019;-80
2024/04/06 00:33:46;;;;;;;12.15;6.32;;;409.70;2355.20;;;;;;4977615;28;20111;-79
2024/04/06 00:36:12;;;;;;;13.30;6.13;;;409.70;2355.20;;;;;;4980712;28;20127;-74
2024/04/06 00:38:37;;;;;;;13.00;6.38;;;409.70;2355.20;;;;;;4985580;28;20034;-75
2024/04/06 00:41:03;;;;;;;15.18;6.68;;;409.80;2355.20;;;;;;4990535;28;20019;-77
2024/04/06 00:43:31;;;;;;;14.88;6.38;;;409.70;2355.20;;;;;;4984210;28;20100;-75
2024/04/06 00:45:57;;;;;;;15.02;6.47;;;409.60;2355.20;;;;;;4978377;28;20030;-75
2024/04/06 00:48:23;;;;;;;14.20;6.45;;;409.60;2355.20;;;;;;4977447;28;20476;-76
2024/04/06 00:50:50;;;;;;;13.80;6.53;;;409.60;2355.20;;;;;;4979818;28;20023;-75
2024/04/06 00:53:16;;;;;;;10.23;6.15;;;384.90;2329.60;;;;;;4989442;28;20018;-76
2024/04/06 00:55:42;;;;;;;15.48;6.22;;;384.90;2329.60;;;;;;4977444;28;20055;-76
2024/04/06 00:58:08;;;;;;;13.23;5.82;;;384.90;2329.60;;;;;;4988944;28;20435;-74
2024/04/06 01:00:34;;;;;;;12.30;6.50;;;409.60;2355.20;;;;;;4979625;28;20472;-75
2024/04/06 01:02:59;;;;;;;11.55;5.97;;;409.70;2355.20;;;;;;4982352;28;20033;-76
2024/04/06 01:05:25;;;;;;;11.82;5.28;;;409.80;2355.20;;;;;;4985354;28;20029;-76
2024/04/06 01:07:51;;;;;;;10.23;5.32;;;409.80;2355.20;;;;;;4981961;28;20498;-75
2024/04/06 01:10:17;;;;;;;12.40;6.10;;;410.00;2355.20;;;;;;4989930;28;20010;-75
2024/04/06 01:12:43;;;;;;;18.60;6.95;;;410.10;2355.20;;;;;;4987945;28;20065;-75
2024/04/06 01:15:09;;;;;;;10.05;5.65;;;410.20;2355.20;;;;;;4987673;28;20037;-75
2024/04/06 01:17:35;;;;;;;16.77;6.20;;;410.20;2355.20;;;;;;4983761;28;20019;-74
2024/04/06 01:20:01;;;;;;;10.25;5.43;;;410.20;2355.20;;;;;;4981556;28;20480;-79
2024/04/06 01:22:28;;;;;;;12.95;6.05;;;410.10;2355.20;;;;;;4982275;28;20046;-78
2024/04/06 01:24:54;;;;;;;12.43;6.03;;;410.20;2355.20;;;;;;4986482;28;20026;-76
2024/04/06 01:27:20;;;;;;;15.52;7.28;;;410.10;2355.20;;;;;;4979157;28;20034;-75
2024/04/06 01:29:46;;;;;;;14.15;6.38;;;410.00;2355.20;;;;;;4980894;28;20054;-75
2024/04/06 01:32:12;;;;;;;13.40;6.65;;;410.00;2355.20;;;;;;4981404;28;20412;-74
2024/04/06 01:34:38;;;;;;;14.38;6.72;;;410.00;2355.20;;;;;;4971940;28;20034;-79
2024/04/06 01:37:06;;;;;;;12.55;6.95;;;410.00;2355.20;;;;;;4979233;28;20023;-76
2024/04/06 01:39:32;;;;;;;15.23;7.32;;;409.90;2355.20;;;;;;4982372;28;20046;-76
2024/04/06 01:41:58;;;;;;;13.27;7.32;;;409.90;2355.20;;;;;;4984372;28;20029;-79
2024/04/06 01:44:23;;;;;;;13.32;8.00;;;409.80;2355.20;;;;;;4990241;28;20026;-78
2024/04/06 01:46:49;;;;;;;10.30;5.95;;;409.70;2355.20;;;;;;4988572;28;20042;-74
2024/04/06 01:49:15;;;;;;;12.10;6.55;;;409.60;2355.20;;;;;;4981379;28;20080;-78
2024/04/06 01:51:41;;;;;;;11.88;5.97;;;384.80;2329.60;;;;;;4990465;28;20027;-79
2024/04/06 01:54:07;;;;;;;11.05;5.65;;;384.40;2329.60;;;;;;4984072;28;20385;-75
2024/04/06 01:56:32;;;;;;;12.35;6.40;;;384.20;2329.60;;;;;;4989616;28;20053;-75
2024/04/06 01:58:58;;;;;;;16.42;6.55;;;384.00;2329.60;;;;;;4978310;28;20043;-75
2024/04/06 02:01:24;;;;;;;13.48;6.00;;;384.00;2329.60;;;;;;4976190;28;20511;-75
2024/04/06 02:03:50;;;;;;;8.85;5.45;;;384.10;2329.60;;;;;;4977959;28;20059;-75
2024/04/06 02:06:17;;;;;;;10.02;5.75;;;384.20;2329.60;;;;;;4976063;28;20058;-76
2024/04/06 02:08:42;;;;;;;21.05;6.32;;;384.20;2329.60;;;;;;4976037;28;20102;-75
2024/04/06 02:11:08;;;;;;;12.73;6.72;;;384.10;2329.60;;;;;;4976174;28;20054;-75
2024/04/06 02:13:34;;;;;;;14.30;6.18;;;384.20;2329.60;;;;;;4995022;28;20097;-76
2024/04/06 02:16:00;;;;;;;16.10;6.28;;;384.30;2329.60;;;;;;4995447;28;20031;-75
2024/04/06 02:18:26;;;;;;;12.38;6.93;;;384.20;2329.60;;;;;;4994970;28;20035;-75
2024/04/06 02:20:52;;;;;;;13.77;6.85;;;384.20;2329.60;;;;;;4995332;28;20097;-74
2024/04/06 02:23:18;;;;;;;10.48;5.90;;;359.30;2329.60;;;;;;4995203;28;20476;-75
2024/04/06 02:25:43;;;;;;;10.32;5.22;;;359.00;2329.60;;;;;;4982082;28;20413;-74
2024/04/06 02:28:09;;;;;;;11.02;6.25;;;359.00;2329.60;;;;;;4994948;28;20038;-81
2024/04/06 02:30:37;;;;;;;11.10;5.60;;;359.10;2329.60;;;;;;4994960;28;20019;-75
2024/04/06 02:33:04;;;;;;;13.20;6.82;;;359.30;2329.60;;;;;;4995005;28;20445;-77
2024/04/06 02:35:30;;;;;;;13.73;6.63;;;384.00;2329.60;;;;;;4977768;28;20102;-74
2024/04/06 02:37:56;;;;;;;12.90;6.65;;;384.10;2329.60;;;;;;4994794;28;20121;-75
2024/04/06 02:40:21;;;;;;;10.73;6.25;;;384.00;2329.60;;;;;;4994904;28;20030;-76
2024/04/06 02:42:47;;;;;;;16.00;6.22;;;384.00;2329.60;;;;;;4977275;28;20395;-76
2024/04/06 02:45:14;;;;;;;11.02;5.97;;;359.30;2329.60;;;;;;4994711;28;20372;-75
2024/04/06 02:47:40;;;;;;;13.02;6.03;;;359.20;2329.60;;;;;;4995030;28;20109;-80
2024/04/06 02:50:06;;;;;;;9.50;5.50;;;359.10;2329.60;;;;;;4994760;28;20170;-73
2024/04/06 02:52:31;;;;;;;9.35;5.47;;;358.90;2329.60;;;;;;5001715;28;20084;-74
2024/04/06 02:54:57;;;;;;;9.70;5.63;;;359.00;2329.60;;;;;;4997070;28;20471;-75
2024/04/06 02:57:23;;;;;;;14.38;6.70;;;359.10;2329.60;;;;;;4994337;28;20035;-74
2024/04/06 02:59:49;;;;;;;12.68;6.25;;;359.20;2329.60;;;;;;4994415;28;20030;-75
2024/04/06 03:02:15;;;;;;;13.23;6.63;;;359.20;2329.60;;;;;;4994352;28;20018;-76
2024/04/06 03:04:41;;;;;;;14.07;7.75;;;359.20;2329.60;;;;;;4994355;28;20547;-79
2024/04/06 03:07:07;;;;;;;25.23;12.23;;;359.20;2329.60;;;;;;4994363;28;20105;-74
2024/04/06 03:09:35;;;;;;;18.88;7.68;;;359.30;2329.60;;;;;;4994165;28;20826;-75
2024/04/06 03:12:03;;;;;;;21.80;9.15;;;359.30;2329.60;;;;;;4994208;28;20045;-77
2024/04/06 03:14:29;;;;;;;20.73;9.93;;;384.00;2329.60;;;;;;4976479;28;20019;-75
2024/04/06 03:16:55;;;;;;;16.30;9.90;;;384.00;2329.60;;;;;;4994220;28;20547;-74
2024/04/06 03:19:20;;;;;;;20.17;9.20;;;384.00;2329.60;;;;;;4993909;28;20117;-75
2024/04/06 03:21:46;;;;;;;22.38;7.57;;;384.00;2329.60;;;;;;4994344;28;20029;-74
2024/04/06 03:24:12;;;;;;;16.35;7.68;;;359.30;2329.60;;;;;;4994136;28;20026;-76
2024/04/06 03:26:39;;;;;;;15.50;7.00;;;359.10;2329.60;;;;;;4984031;28;20026;-75
2024/04/06 03:29:05;;;;;;;12.95;6.80;;;359.00;2329.60;;;;;;4976513;28;20038;-75
2024/04/06 03:31:31;;;;;;;11.00;6.18;;;358.90;2329.60;;;;;;5004259;28;20125;-74
2024/04/06 03:33:57;;;;;;;13.60;6.25;;;358.80;2329.60;;;;;;4996952;28;20050;-76
2024/04/06 03:36:22;;;;;;;12.65;6.35;;;358.70;2329.60;;;;;;4993919;28;20030;-75
2024/04/06 03:38:48;;;;;;;15.43;6.75;;;358.80;2329.60;;;;;;4994017;28;20023;-75
2024/04/06 03:41:14;;;;;;;14.50;6.65;;;358.80;2329.60;;;;;;4993746;28;20030;-75
2024/04/06 03:43:40;;;;;;;20.75;6.82;;;358.90;2329.60;;;;;;4993800;28;20422;-76
2024/04/06 03:46:06;;;;;;;20.05;7.35;;;359.10;2329.60;;;;;;4993816;28;20041;-75
2024/04/06 03:48:32;;;;;;;14.82;6.60;;;359.00;2329.60;;;;;;4993923;28;20152;-76
2024/04/06 03:50:58;;;;;;;17.48;7.47;;;359.20;2329.60;;;;;;4993924;28;20026;-77
2024/04/06 03:53:36;;;;;;;12.93;7.20;;;359.20;2329.60;;;;;;4993935;28;20027;-75
2024/04/06 03:56:03;;;;;;;16.02;7.28;;;359.20;2329.60;;;;;;4993357;28;20058;-75
2024/04/06 03:58:29;;;;;;;16.92;6.88;;;359.30;2329.60;;;;;;4993824;28;20121;-80
2024/04/06 04:00:55;;;;;;;14.52;6.13;;;384.00;2329.60;;;;;;4993610;28;20030;-78
2024/04/06 04:03:21;;;;;;;29.02;6.78;;;384.10;2329.60;;;;;;4993919;28;20494;-76
2024/04/06 04:05:50;;;;;;;17.60;6.40;;;384.00;2329.60;;;;;;4994009;28;20014;-75
2024/04/06 04:08:16;;;;;;;14.27;7.18;;;359.20;2329.60;;;;;;4993521;28;20357;-75
2024/04/06 04:10:42;;;;;;;16.15;7.10;;;359.20;2329.60;;;;;;4992794;28;20065;-74
2024/04/06 04:13:12;;;;;;;17.90;7.40;;;359.00;2329.60;;;;;;4993392;28;20022;-75
2024/04/06 04:15:39;;;;;;;15.23;6.78;;;358.80;2329.60;;;;;;4993487;28;20030;-75
2024/04/06 04:18:06;;;;;;;21.65;7.93;;;359.00;2329.60;;;;;;4975981;28;20431;-76
2024/04/06 04:20:32;;;;;;;13.95;7.18;;;359.20;2329.60;;;;;;4992898;28;20034;-77
2024/04/06 04:23:00;;;;;;;14.15;7.05;;;359.30;2329.60;;;;;;4993492;28;20539;-76
2024/04/06 04:25:27;;;;;;;15.52;7.35;;;359.20;2329.60;;;;;;4993488;28;20027;-74
2024/04/06 04:28:00;;;;;;;15.35;7.60;;;359.30;2329.60;;;;;;4979625;28;20041;-76
2024/04/06 04:30:27;;;;;;;32.40;8.32;;;384.10;2329.60;;;;;;4996599;28;20034;-75
2024/04/06 04:32:53;;;;;;;17.17;7.18;;;384.10;2329.60;;;;;;4987975;28;20027;-80
2024/04/06 04:35:20;;;;;;;19.27;7.47;;;384.30;2329.60;;;;;;4993691;28;20080;-81
2024/04/06 04:37:46;;;;;;;14.55;7.38;;;384.40;2329.60;;;;;;4979698;28;20081;-76
2024/04/06 04:40:11;;;;;;;15.32;7.90;;;384.40;2329.60;;;;;;4995659;28;20034;-77
2024/04/06 04:42:38;;;;;;;15.10;7.03;;;384.50;2329.60;;;;;;4987293;28;20553;-76
2024/04/06 04:45:14;;;;;;;23.42;7.85;;;384.50;2329.60;;;;;;4996941;28;20030;-76
2024/04/06 04:47:43;;;;;;;20.98;8.50;;;384.50;2329.60;;;;;;4997244;28;20022;-76
2024/04/06 04:50:09;;;;;;;15.30;7.10;;;384.40;2329.60;;;;;;4983347;28;20373;-74
2024/04/06 04:52:36;;;;;;;21.52;8.02;;;384.20;2329.60;;;;;;4988604;28;20062;-74
2024/04/06 04:55:03;;;;;;;22.40;8.52;;;384.00;2329.60;;;;;;4984608;28;20101;-78
2024/04/06 04:57:29;;;;;;;13.63;7.25;;;359.30;2329.60;;;;;;4984214;28;20105;-75
2024/04/06 04:59:55;;;;;;;18.30;6.72;;;359.20;2329.60;;;;;;4983685;28;20035;-75
2024/04/06 05:02:21;;;;;;;17.88;7.72;;;359.10;2329.60;;;;;;4984178;28;20099;-75
2024/04/06 05:04:46;;;;;;;12.48;7.40;;;359.00;2329.60;;;;;;4988577;28;20026;-74
2024/04/06 05:07:13;;;;;;;14.05;7.63;;;359.20;2329.60;;;;;;4987510;28;20073;-78
2024/04/06 05:09:38;;;;;;;12.75;7.10;;;384.00;2329.60;;;;;;4981372;28;20023;-80
2024/04/06 05:12:05;;;;;;;24.05;8.13;;;359.30;2329.60;;;;;;4979281;28;20049;-76
2024/04/06 05:14:30;;;;;;;19.25;7.38;;;384.30;2329.60;;;;;;4988320;28;20058;-77
2024/04/06 05:16:56;;;;;;;23.20;7.88;;;384.40;2329.60;;;;;;4969700;28;20077;-75
2024/04/06 05:19:22;;;;;;;20.25;7.60;;;384.30;2329.60;;;;;;4976010;28;20133;-78
2024/04/06 05:21:48;;;;;;;14.38;6.80;;;384.30;2329.60;;;;;;4988349;28;20042;-76
2024/04/06 05:24:14;;;;;;;15.07;7.20;;;384.40;2329.60;;;;;;4965313;28;20031;-76
2024/04/06 05:26:44;;;;;;;15.07;7.15;;;384.60;2329.60;;;;;;4989798;28;20026;-77
2024/04/06 05:29:11;;;;;;;20.58;7.30;;;384.70;2329.60;;;;;;4987382;28;20018;-77
2024/04/06 05:31:37;;;;;;;16.50;6.95;;;384.70;2329.60;;;;;;4970977;28;20022;-76
2024/04/06 05:34:04;;;;;;;21.83;10.68;;;384.90;2329.60;;;;;;4991924;28;20049;-76
2024/04/06 05:36:30;;;;;;;14.88;8.07;;;384.90;2329.60;;;;;;4962675;28;20027;-78
2024/04/06 05:38:55;;;;;;;17.40;9.13;;;384.70;2329.60;;;;;;4989381;28;20396;-77
2024/04/06 05:41:22;;;;;;;15.50;7.63;;;384.90;2329.60;;;;;;4969535;28;20114;-79
2024/04/06 05:43:48;;;;;;;17.00;7.65;;;409.60;2355.20;;;;;;4989021;28;20029;-75
2024/04/06 05:46:14;;;;;;;14.88;7.03;;;409.60;2355.20;;;;;;4988419;28;20046;-75
2024/04/06 05:48:40;;;;;;;18.25;7.80;;;409.70;2355.20;;;;;;4982285;28;20468;-79
2024/04/06 05:51:05;;;;;;;20.00;7.90;;;409.90;2355.20;;;;;;4983706;28;20098;-75
2024/04/06 05:53:31;;;;;;;15.57;7.22;;;410.00;2355.20;;;;;;4986283;28;20042;-74
2024/04/06 05:55:58;;;;;;;20.52;9.07;;;410.10;2355.20;;;;;;4985418;28;20042;-78
2024/04/06 05:58:24;;;;;;;20.27;7.22;;;410.00;2355.20;;;;;;4985974;28;20043;-74
2024/04/06 06:00:50;;;;;;;15.48;6.68;;;410.20;2355.20;;;;;;4987059;28;20388;-77
2024/04/06 06:03:16;;;;;;;22.58;7.20;;;410.20;2355.20;;;;;;4984406;28;20027;-75
2024/04/06 06:05:42;;;;;;;16.63;7.55;;;410.40;2355.20;;;;;;4984668;28;20108;-76
2024/04/06 06:08:07;;;;;;;15.90;7.22;;;410.50;2355.20;;;;;;4970116;28;20022;-76
2024/04/06 06:10:33;;;;;;;15.07;6.97;;;435.20;2355.20;;;;;;4986877;28;20484;-76
2024/04/06 06:12:59;;;;;;;22.60;8.00;;;435.30;2355.20;;;;;;4984365;28;20027;-74
2024/04/06 06:15:25;;;;;;;12.23;6.53;;;435.60;2355.20;;;;;;4982191;28;20018;-76
2024/04/06 06:17:51;;;;;;;14.35;7.18;;;;;;;;;;4971851;28;20173;-78
2024/04/06 06:20:19;;;;;;;14.98;6.50;;;435.80;2355.20;;;;;;4987713;28;20399;-75
2024/04/06 06:22:45;;;;;;;14.35;6.50;;;435.90;2355.20;;;;;;4983362;28;20018;-75
2024/04/06 06:25:11;;;;;;;15.10;6.97;;;435.90;2355.20;;;;;;4984301;28;20049;-83
2024/04/06 06:27:38;;;;;;;14.75;6.57;;;436.00;2355.20;;;;;;4986535;28;20058;-74
2024/04/06 06:30:06;;;;;;;18.70;6.60;;;436.00;2355.20;;;;;;4986032;28;20030;-74
2024/04/06 06:32:32;;;;;;;11.07;6.30;;;436.10;2355.20;;;;;;4988450;28;20034;-79
2024/04/06 06:34:58;;;;;;;14.05;7.22;;;460.80;2380.80;;;;;;4988741;28;20025;-75
2024/04/06 06:37:23;;;;;;;14.05;6.53;;;460.90;2380.80;;;;;;4986232;28;20060;-75
2024/04/06 06:39:49;;;;;;;13.93;5.63;;;461.10;2380.80;;;;;;4990255;28;20558;-78
2024/04/06 06:42:15;;;;;;;16.90;7.03;;;461.00;2380.80;;;;;;4982215;28;20533;-75
2024/04/06 06:44:41;;;;;;;14.15;5.28;;;461.20;2380.80;;;;;;4988219;28;20069;-76
2024/04/06 06:47:07;;;;;;;8.98;4.93;;;461.20;2380.80;;;;;;4989346;28;20015;-77
2024/04/06 06:49:33;;;;;;;9.25;4.00;;;461.40;2380.80;;;;;;4983633;28;20023;-75
2024/04/06 06:51:59;;;;;;;10.20;4.53;;;461.30;2380.80;;;;;;4984294;28;20027;-73
2024/04/06 06:54:27;;;;;;;13.20;5.50;;;461.40;2380.80;;;;;;4990391;28;20041;-75
2024/04/06 06:56:52;;;;;;;11.50;4.68;;;461.40;2380.80;;;;;;4976254;28;20454;-76
2024/04/06 06:59:18;;;;;;;12.55;5.47;;;461.50;2380.80;;;;;;4985427;28;20061;-77
2024/04/06 07:01:44;;;;;;;11.82;5.53;;;461.60;2380.80;;;;;;4989291;28;20385;-77
2024/04/06 07:04:11;;;;;;;11.45;5.38;;;461.70;2380.80;;;;;;4986918;28;20492;-77
2024/04/06 07:06:37;;;;;;;19.67;5.45;;;461.70;2380.80;;;;;;4984573;28;20022;-76
2024/04/06 07:09:03;;;;;;;9.75;4.60;;;486.40;2380.80;;;;;;4989614;28;20033;-75
2024/04/06 07:11:29;;;;;;;11.98;5.20;;;486.40;2380.80;;;;;;4985902;28;20035;-75
2024/04/06 07:13:55;;;;;;;11.73;4.50;;;486.50;2380.80;;;;;;4985752;28;20109;-76
2024/04/06 07:16:21;;;;;;;11.73;4.78;;;486.70;2380.80;;;;;;4989600;28;20537;-75
2024/04/06 07:18:47;;;;;;;14.73;4.57;;;486.80;2380.80;;;;;;4987588;28;20105;-79
2024/04/06 07:21:18;;;;;;;11.20;5.03;;;486.90;2380.80;;;;;;4967494;28;20403;-79
2024/04/06 07:23:44;;;;;;;8.88;5.45;;;487.00;2380.80;;;;;;4986483;28;20033;-79
2024/04/06 07:26:10;;;;;;;12.05;4.53;;;487.10;2380.80;;;;;;4983397;28;20034;-75
2024/04/06 07:28:39;;;;;;;9.95;4.70;;;487.30;2380.80;;;;;;4986944;28;20043;-75
2024/04/06 07:31:05;;;;;;;6.88;4.22;;;512.00;2380.80;;;;;;4987602;28;20081;-76
2024/04/06 07:33:31;;;;;;;10.75;4.90;;;512.00;2380.80;;;;;;4986915;28;20551;-79
2024/04/06 07:35:57;;;;;;;18.65;5.38;;;512.00;2380.80;;;;;;4983363;28;20030;-76
2024/04/06 07:38:27;;;;;;;8.90;4.97;;;512.10;2380.80;;;;;;4980791;28;20035;-76
2024/04/06 07:41:00;;;;;;;8.50;4.93;;;512.20;2380.80;;;;;;4967689;28;20050;-76
2024/04/06 07:43:27;;;;;;;12.05;5.05;;;512.50;2380.80;;;;;;4985270;28;20042;-76
2024/04/06 07:45:54;;;;;;;10.73;4.55;;;512.50;2380.80;;;;;;4988466;28;20041;-76
2024/04/06 07:48:20;;;;;;;11.85;6.03;;;512.80;2380.80;;;;;;4984986;28;20019;-76
2024/04/06 07:50:46;;;;;;;14.65;5.45;;;512.90;2355.20;;;;;;4984632;28;20034;-76
2024/04/06 07:53:12;;;;;;;10.25;4.50;;;537.90;2355.20;;;;;;4961650;28;20034;-76
2024/04/06 07:55:38;;;;;;;11.52;4.97;;;538.20;2304.00;;;;;;4989625;28;20053;-76
2024/04/06 07:58:04;;;;;;;11.25;4.43;;;538.40;2278.40;;;;;;4984478;28;20030;-78
2024/04/06 08:00:31;;;;;;;7.47;3.35;;;563.40;2252.80;;;;;;4988082;28;20018;-78
2024/04/06 08:02:57;;;;;;;6.68;3.22;;;563.60;2176.00;;;;;;4993831;28;20176;-75
2024/04/06 08:05:23;;;;;;;13.40;4.15;;;563.90;2150.40;;;;;;4988100;28;20479;-75
2024/04/06 08:07:48;;;;;;;7.78;3.30;;;564.10;2073.60;;;;;;4985956;28;20050;-76
2024/04/06 08:10:16;;;;;;;5.95;3.00;;;588.80;2022.40;;;;;;4989264;28;20026;-76
2024/04/06 08:12:43;;;;;;;9.38;3.25;;;589.10;1996.80;;;;;;4992169;28;20022;-75
2024/04/06 08:15:10;;;;;;;6.78;2.53;;;589.40;1868.80;;;;;;4990627;28;20022;-75
2024/04/06 08:17:42;;;;;;;8.90;2.60;;;589.40;1817.60;;;;;;4992898;28;20031;-75
2024/04/06 08:20:11;;;;;;;5.43;2.45;;;589.30;1894.40;;;;;;4990263;28;20108;-75
2024/04/06 08:22:40;;;;;;;6.60;2.40;;;589.70;1740.80;;;;;;4986773;28;20037;-76
2024/04/06 08:25:06;;;;;;;12.10;2.38;;;614.50;1715.20;;;;;;4991634;28;20202;-76
2024/04/06 08:27:36;;;;;;;7.68;2.58;;;614.40;1715.20;;;;;;4988226;28;20031;-75
2024/04/06 08:30:04;;;;;;;7.68;2.53;;;614.50;1664.00;;;;;;4994061;28;20544;-76
2024/04/06 08:32:35;;;;;;;7.32;2.60;;;614.40;1664.00;;;;;;4996315;28;20029;-76
2024/04/06 08:35:01;;;;;;;3.22;1.77;;;589.70;1715.20;;;;;;4988265;28;20027;-78
2024/04/06 08:37:27;;;;;;;9.57;2.85;;;614.70;1638.40;;;;;;4972828;28;20373;-75
2024/04/06 08:39:53;;;;;;;5.03;2.08;;;614.60;1664.00;;;;;;4993942;28;20392;-75
2024/04/06 08:42:22;;;;;;;7.53;2.30;;;614.40;1638.40;;;;;;4986514;28;20019;-76
2024/04/06 08:44:50;;;;;;;8.93;2.40;;;589.70;1664.00;;;;;;4990752;28;20031;-74
2024/04/06 08:47:19;;;;;;;5.82;2.25;;;614.40;1664.00;;;;;;4988345;28;20037;-75
2024/04/06 08:49:45;;;;;;;7.22;2.17;;;614.90;1638.40;;;;;;4992947;28;20034;-78
2024/04/06 08:52:12;;;;;;;5.68;2.70;;;615.20;1638.40;;;;;;4991117;28;20050;-75
2024/04/06 08:54:38;;;;;;;10.27;1.90;;;640.20;1587.20;;;;;;4991019;28;20030;-77
2024/04/06 08:57:05;;;;;;;7.38;2.10;;;640.50;1536.00;;;;;;4972125;28;20431;-75
2024/04/06 08:59:32;;;;;;;5.53;2.33;;;640.50;1510.40;;;;;;4993657;28;20034;-76
2024/04/06 09:01:59;;;;;;;8.18;2.50;;;640.50;1536.00;;;;;;4989932;28;20092;-77
2024/04/06 09:04:25;;;;;;;8.05;2.97;;;640.40;1587.20;;;;;;4984282;28;20037;-76
2024/04/06 09:06:51;;;;;;;8.13;2.60;;;640.10;1536.00;;;;;;4991064;28;20026;-79
2024/04/06 09:09:17;;;;;;;10.30;2.90;;;640.50;1561.60;;;;;;4985865;28;20030;-77
2024/04/06 09:11:44;;;;;;;9.02;2.80;;;640.50;1536.00;;;;;;4980357;28;20471;-77
2024/04/06 09:14:10;;;;;;;7.63;2.13;;;640.90;1510.40;;;;;;4982870;28;20472;-76
2024/04/06 09:16:38;;;;;;;9.23;2.50;;;665.70;1510.40;;;;;;4979623;28;20065;-76
2024/04/06 09:19:04;;;;;;;7.68;2.17;;;665.90;1510.40;;;;;;4972130;28;20035;-79
2024/04/06 09:21:30;;;;;;;6.82;2.47;;;665.80;1484.80;;;;;;4987274;28;20085;-77
2024/04/06 09:23:57;;;;;;;12.73;8.27;;;666.20;1510.40;;;;;;4983301;28;20034;-79
2024/04/06 09:26:23;;;;;;;8.35;3.00;;;691.20;1433.60;;;;;;4987856;28;20069;-78
2024/04/06 09:28:53;;;;;;;8.40;2.72;;;691.30;1433.60;;;;;;4984413;28;20038;-76
2024/04/06 09:31:23;;;;;;;7.47;2.72;;;691.30;1408.00;;;;;;4993112;28;20551;-81
2024/04/06 09:33:54;;;;;;;4.85;2.03;;;691.50;1382.40;;;;;;4985436;28;20022;-76
2024/04/06 09:36:20;;;;;;;8.98;3.58;;;691.60;1331.20;;;;;;4987702;28;20034;-76
2024/04/06 09:38:50;;;;;;;16.65;7.03;;;691.60;1331.20;;;;;;4991318;28;20408;-78
2024/04/06 09:41:17;;;;;;;8.13;3.67;;;691.30;1382.40;;;;;;4968782;28;20392;-75
2024/04/06 09:43:53;;;;;;;10.00;2.63;;;691.60;1356.80;;;;;;4987732;28;20503;-75
2024/04/06 09:46:19;;;;;;;;;;;691.90;1331.20;;;;;;4989088;28;20473;-80
2024/04/06 09:48:47;;;;;;;7.45;2.10;;;692.10;1280.00;;;;;;4989064;28;19952;-75
2024/04/06 09:51:13;;;;;;;6.22;2.42;;;691.90;1280.00;;;;;;4991080;28;20034;-75
2024/04/06 09:53:41;;;;;;;6.57;2.00;;;691.90;1305.60;;;;;;4987782;28;20077;-73
2024/04/06 09:56:09;;;;;;;2.90;1.70;;;691.70;1305.60;;;;;;4994774;28;20100;-74
2024/04/06 09:58:36;;;;;;;5.40;1.80;;;691.50;1305.60;;;;;;4989727;28;20034;-76
2024/04/06 10:01:09;;;;;;;7.85;2.40;;;691.30;1331.20;;;;;;4982077;28;20023;-72
2024/04/06 10:03:43;;;;;;;9.82;2.60;;;691.30;1356.80;;;;;;4981147;28;20096;-73
2024/04/06 10:06:18;;;;;;;4.13;2.20;;;691.20;1331.20;;;;;;4982594;28;20157;-72
2024/04/06 10:08:50;;;;;;;7.10;2.30;;;691.20;1356.80;;;;;;4984751;28;20019;-71
2024/04/06 10:11:21;;;;;;;7.63;2.25;;;691.20;1331.20;;;;;;4982695;28;20114;-72
2024/04/06 10:14:03;;;;;;;11.43;2.30;;;691.20;1331.20;;;;;;4988580;28;20473;-72
2024/04/06 10:16:30;;;;;;;6.82;2.55;;;691.20;1331.20;;;;;;4984752;28;20469;-73
2024/04/06 10:18:58;;;;;;;3.55;1.73;;;691.50;1331.20;;;;;;4980599;28;20031;-76
2024/04/06 10:21:30;;;;;;;5.13;2.08;;;691.70;1305.60;;;;;;4989165;28;20026;-76
2024/04/06 10:23:56;;;;;;;8.45;2.70;;;691.60;1305.60;;;;;;4987671;28;20105;-78
2024/04/06 10:26:22;;;;;;;7.13;2.45;;;691.90;1280.00;;;;;;4968931;28;20125;-76
2024/04/06 10:28:48;;;;;;;5.75;2.63;;;691.90;1280.00;;;;;;4984209;28;20503;-76
2024/04/06 10:31:14;;;;;;;5.70;2.88;;;691.80;1305.60;;;;;;4976678;28;20027;-73
2024/04/06 10:33:41;;;;;;;7.20;2.75;;;692.00;1280.00;;;;;;4985013;28;20053;-74
2024/04/06 10:36:10;;;;;;;7.20;2.40;;;716.80;1331.20;;;;;;4988514;28;20030;-74
2024/04/06 10:38:40;;;;;;;5.47;1.88;;;692.10;1280.00;;;;;;4986606;28;20026;-75
2024/04/06 10:41:06;;;;;;;7.30;2.10;;;716.80;1331.20;;;;;;4988256;28;20484;-78
2024/04/06 10:43:35;;;;;;;8.07;2.08;;;692.10;1280.00;;;;;;4975367;28;20035;-73
2024/04/06 10:46:04;;;;;;;5.30;2.30;;;716.80;1280.00;;;;;;4987536;28;20475;-72
2024/04/06 10:48:31;;;;;;;6.05;2.35;;;716.90;1280.00;;;;;;4982763;28;20496;-77
2024/04/06 10:50:58;;;;;;;4.15;1.90;;;716.90;1254.40;;;;;;4979066;28;20022;-72
2024/04/06 10:53:25;;;;;;;6.40;2.08;;;692.00;1254.40;;;;;;4981389;28;20102;-73
2024/04/06 10:55:52;;;;;;;4.32;1.90;;;691.70;1254.40;;;;;;4986129;28;20526;-76
2024/04/06 10:58:19;;;;;;;6.47;1.90;;;691.70;1254.40;;;;;;4984894;28;20035;-76
2024/04/06 11:00:46;;;;;;;9.77;1.98;;;691.80;1280.00;;;;;;4989924;28;20523;-77
2024/04/06 11:03:12;;;;;;;8.57;1.90;;;691.70;1280.00;;;;;;4982231;28;20092;-78
2024/04/06 11:05:39;;;;;;;6.57;2.08;;;691.60;1280.00;;;;;;4968733;28;20118;-80
2024/04/06 11:08:06;;;;;;;4.38;2.00;;;691.70;1280.00;;;;;;4990102;28;20019;-78
2024/04/06 11:10:32;;;;;;;6.10;1.88;;;691.40;1254.40;;;;;;4980104;28;20018;-79
2024/04/06 11:12:59;;;;;;;4.13;1.98;;;691.30;1280.00;;;;;;4992337;28;20034;-79
2024/04/06 11:15:27;;;;;;;7.55;2.65;;;691.30;1280.00;;;;;;4985670;28;20049;-79
2024/04/06 11:17:57;;;;;;;6.20;2.25;;;691.60;1280.00;;;;;;4989902;28;21934;-78
2024/04/06 11:20:23;;;;;;;5.45;2.22;;;691.40;1305.60;;;;;;4987329;28;20038;-75
2024/04/06 11:22:50;;;;;;;7.30;2.53;;;691.30;1280.00;;;;;;4983073;28;20034;-77
2024/04/06 11:25:17;;;;;;;8.07;2.42;;;666.50;1305.60;;;;;;4985820;28;20479;-79
2024/04/06 11:27:51;;;;;;;6.32;2.17;;;666.30;1331.20;;;;;;4958716;28;20419;-76
2024/04/06 11:30:18;;;;;;;5.03;1.85;;;666.30;1331.20;;;;;;4986018;28;20038;-75
2024/04/06 11:32:45;;;;;;;4.35;2.08;;;666.20;1331.20;;;;;;4966398;28;20451;-79
2024/04/06 11:35:11;;;;;;;8.30;1.77;;;666.30;1356.80;;;;;;4977047;28;20025;-74
2024/04/06 11:37:38;;;;;;;8.48;2.30;;;666.30;1331.20;;;;;;4983885;28;20026;-75
2024/04/06 11:40:05;;;;;;;6.80;2.10;;;666.30;1356.80;;;;;;4982740;28;20038;-75
2024/04/06 11:42:30;;;;;;;5.95;1.92;;;666.30;1305.60;;;;;;4980855;28;20392;-74
2024/04/06 11:44:56;;;;;;;8.98;2.20;;;666.20;1305.60;;;;;;4988401;28;20026;-75
2024/04/06 11:47:22;;;;;;;5.38;2.42;;;666.20;1331.20;;;;;;4986723;28;20066;-77
2024/04/06 11:49:49;;;;;;;10.00;2.42;;;666.30;1305.60;;;;;;4986109;28;20026;-76
2024/04/06 11:52:15;;;;;;;5.68;1.73;;;666.30;1331.20;;;;;;4990218;28;20038;-76
2024/04/06 11:54:42;;;;;;;4.53;2.13;;;666.40;1331.20;;;;;;4987381;28;20041;-76
2024/04/06 11:57:08;;;;;;;5.82;2.35;;;666.50;1331.20;;;;;;4981970;28;20026;-74
2024/04/06 11:59:34;;;;;;;5.43;2.22;;;691.20;1356.80;;;;;;4985895;28;20100;-77
2024/04/06 12:02:00;;;;;;;4.82;2.13;;;691.20;1331.20;;;;;;4962852;28;20039;-80
2024/04/06 12:04:26;;;;;;;6.10;2.15;;;691.30;1331.20;;;;;;4979490;28;20033;-79
2024/04/06 12:06:53;;;;;;;5.95;1.83;;;691.30;1331.20;;;;;;4984409;28;20034;-76
2024/04/06 12:09:19;;;;;;;6.57;2.15;;;691.30;1305.60;;;;;;4978866;28;20022;-81